Golden, CO

3:39 AM MDT on September 01, 2014 (GMT -0600)
Erie Municipal Airport | Change Station
CLOSE
Current Station
Airport
Location: Erie,
Elevation: 5128 ft
Nearby Weather Stations

Elev 5128 ft 40.01 °N, 105.05 °W | Updated 4 minutes ago

Clear
Clear
51 °F
Feels Like 51 °F
N
4
Wind Variable Wind from SSW

Today
High -- | Low -- °F
--% Chance of Precip.
Yesterday
High -- | Low -- °F
Precip. -- in
6:28 AM 7:31 PM
Waxing Crescent, 39% visible
Pressure 30.07 in
Visibility 10.0 miles
Clouds Clear
Dew Point 50 °F
Humidity 94%
Rainfall 0.00 in
Snow Depth Not available.
UV 0 out of 12
Pollen 10.10 out of 12
PM2.5 Good
Flu Activity Not available.
METAR KEIK 010935Z AUTO 20003KT 10SM CLR 11/10 A3007 RMK AO2 T01080099

More Conditions Fewer Conditions

Pressure 30.07 in
Visibility 10.0 miles
Clouds Clear
Dew Point 50 °F
Humidity 94%
Rainfall 0.00 in
Snow Depth Not available.
UV 0 out of 12
Pollen 10.10 out of 12
PM2.5 Good
Flu Activity Not available.
METAR KEIK 010935Z AUTO 20003KT 10SM CLR 11/10 A3007 RMK AO2 T01080099

More Conditions Fewer Conditions

10-Day Weather Forecast

Almanac

Astronomy

Sep. 01, 2014 Rise Set
Actual Time 6:28 AM MDT 7:31 PM MDT
Civil Twilight 6:01 AM MDT 7:59 PM MDT
Nautical Twilight 5:28 AM MDT 8:32 PM MDT
Astronomical Twilight 4:53 AM MDT 9:06 PM MDT
Moon 1:16 PM MDT 11:36 PM MDT
Length of Visible Light 13h 58m
Length of Day
13h 03m
Tomorrow will be 2m 30s shorter.
Waxing Crescent, 39% of the Moon is Illuminated
Today
Waxing Crescent
Sep 2
First Quarter
Sep 8
Full
Sep 15
Last Quarter
Sep 24
New

Today's Extremes

State Highs State Lows

Community

WunderPhotos

Upload Photos

1,749,178 photos uploaded!

Nearby

Air Quality

  Air Quality AQ Index Pollutant
Yesterday Good
OZONE
Yesterday Good
PM10
Current Good
PM2.5
Monday Good
OZONE
Monday Good
PM2.5

Snow Depth

Station Depth Elevation
Echo Lake 0 in 10600 ft
Niwot 1 in 9910 ft
University Camp 0 in 10300 ft
Berthoud Summit 0 in 11300 ft
Jackwhacker Gulch 0 in 10960 ft

Earthquake Activity

City Distance Mag. Time & Date
No recent earthquake activity has been reported nearby.
Minimum magnitude displayed is 2.5.

Coastal Water Temperatures

Place Temperature
No Stations Reporting

Nearby Weather Stations